Time;durP1;ratioP1;P1;durP2;ratioP2;P2;SDS_P1;SDS_P2;PMS_P1;PMS_P2;Temp;Humidity;BMP_temperature;BMP_pressure;BME280_temperature;BME280_humidity;BME280_pressure;Samples;Min_cycle;Max_cycle;Signal;HPM_P1;HPM_P2
2021/06/20 00:00:16;;;;;;;;;;;26.10;99.90;;;;;;5080768;28;19968;-81
2021/06/20 00:02:42;;;;;;;;;;;26.00;99.90;;;;;;5080366;28;19927;-82
2021/06/20 00:05:10;;;;;;;;;;;26.00;99.90;;;;;;5080881;28;20269;-82
2021/06/20 00:07:36;;;;;;;;;;;26.00;99.90;;;;;;5082554;28;19912;-82
2021/06/20 00:10:03;;;;;;;;;;;25.90;99.90;;;;;;5080461;28;19904;-82
2021/06/20 00:12:28;;;;;;;;;;;25.80;99.90;;;;;;5080827;28;20351;-82
2021/06/20 00:14:54;;;;;;;;;;;25.80;99.90;;;;;;5080945;28;19904;-82
2021/06/20 00:17:19;;;;;;;;;;;25.80;99.90;;;;;;5080630;28;19905;-82
2021/06/20 00:19:44;;;;;;;;;;;25.80;99.90;;;;;;5080714;28;19911;-83
2021/06/20 00:22:10;;;;;;;;;;;25.70;99.90;;;;;;5081030;28;20447;-81
2021/06/20 00:24:35;;;;;;;;;;;25.70;99.90;;;;;;5082032;28;20279;-82
2021/06/20 00:27:01;;;;;;;;;;;25.70;99.90;;;;;;5080369;28;19911;-82
2021/06/20 00:29:26;;;;;;;;;;;25.70;99.90;;;;;;5080875;28;19905;-81
2021/06/20 00:31:53;;;;;;;;;;;25.60;99.90;;;;;;5079965;28;19908;-82
2021/06/20 00:34:19;;;;;;;;;;;25.60;99.90;;;;;;5079860;28;20249;-81
2021/06/20 00:36:44;;;;;;;;;;;25.70;99.90;;;;;;5080165;28;19953;-82
2021/06/20 00:39:10;;;;;;;;;;;25.70;99.90;;;;;;5079408;28;19908;-82
2021/06/20 00:41:36;;;;;;;;;;;25.60;99.90;;;;;;5079463;28;19904;-81
2021/06/20 00:44:02;;;;;;;;;;;25.70;99.90;;;;;;5079596;28;20269;-81
2021/06/20 00:46:28;;;;;;;;;;;25.70;99.90;;;;;;5079954;28;20453;-82
2021/06/20 00:48:54;;;;;;;;;;;25.70;99.90;;;;;;5080036;28;19905;-81
2021/06/20 00:51:20;;;;;;;;;;;25.80;99.90;;;;;;5080311;28;19920;-82
2021/06/20 00:53:45;;;;;;;;;;;25.90;99.90;;;;;;5079648;28;19905;-81
2021/06/20 00:56:12;;;;;;;;;;;25.90;99.90;;;;;;5082027;28;19912;-81
2021/06/20 00:58:38;;;;;;;;;;;26.00;99.90;;;;;;5079138;28;19915;-82
2021/06/20 01:01:04;;;;;;;;;;;26.00;99.90;;;;;;5079627;28;19904;-82
2021/06/20 01:03:29;;;;;;;;;;;26.00;99.90;;;;;;5079517;28;19930;-81
2021/06/20 01:05:55;;;;;;;;;;;26.00;99.90;;;;;;5077868;28;19904;-81
2021/06/20 01:08:21;;;;;;;;;;;25.90;99.90;;;;;;5080376;28;19910;-81
2021/06/20 01:10:46;;;;;;;;;;;25.90;99.90;;;;;;5079157;28;20398;-81
2021/06/20 01:13:13;;;;;;;;;;;25.80;99.90;;;;;;5080067;28;19999;-81
2021/06/20 01:15:39;;;;;;;;;;;25.80;99.90;;;;;;5079794;28;19915;-81
2021/06/20 01:18:05;;;;;;;;;;;25.70;99.90;;;;;;5079515;28;19904;-81
2021/06/20 01:20:30;;;;;;;;;;;25.70;99.90;;;;;;5079325;28;19957;-81
2021/06/20 01:22:56;;;;;;;;;;;25.70;99.90;;;;;;5079395;28;19904;-81
2021/06/20 01:25:23;;;;;;;;;;;25.60;99.90;;;;;;5080976;28;19909;-81
2021/06/20 01:27:53;;;;;;;;;;;25.50;99.90;;;;;;5079478;28;19911;-81
2021/06/20 01:30:29;;;;;;;;;;;25.50;99.90;;;;;;5079558;28;19943;-82
2021/06/20 01:32:55;;;;;;;;;;;25.40;99.90;;;;;;5079949;28;20224;-81
2021/06/20 01:35:21;;;;;;;;;;;25.30;99.90;;;;;;5078560;28;20390;-81
2021/06/20 01:37:47;;;;;;;;;;;25.30;99.90;;;;;;5078972;28;19926;-81
2021/06/20 01:40:13;;;;;;;;;;;25.30;99.90;;;;;;5080738;28;19904;-81
2021/06/20 01:42:39;;;;;;;;;;;25.30;99.90;;;;;;5079995;28;19907;-81
2021/06/20 01:45:06;;;;;;;;;;;25.40;99.90;;;;;;5081143;28;20007;-81
2021/06/20 01:47:32;;;;;;;;;;;25.30;99.90;;;;;;5081212;28;19908;-80
2021/06/20 01:49:59;;;;;;;;;;;25.30;99.90;;;;;;5079450;28;19911;-82
2021/06/20 01:52:25;;;;;;;;;;;25.30;99.90;;;;;;5079212;28;19912;-82
2021/06/20 01:54:52;;;;;;;;;;;25.30;99.90;;;;;;5079517;28;20421;-81
2021/06/20 01:57:18;;;;;;;;;;;25.30;99.90;;;;;;5078853;28;20331;-81
2021/06/20 01:59:44;;;;;;;;;;;25.30;99.90;;;;;;5080560;28;19963;-81
2021/06/20 02:02:09;;;;;;;;;;;25.20;99.90;;;;;;5080807;28;19949;-81
2021/06/20 02:04:35;;;;;;;;;;;25.30;99.90;;;;;;5079367;28;19972;-81
2021/06/20 02:07:00;;;;;;;;;;;25.20;99.90;;;;;;5079540;28;19910;-81
2021/06/20 02:09:26;;;;;;;;;;;25.20;99.90;;;;;;5080104;28;20007;-81
2021/06/20 02:11:51;;;;;;;;;;;25.10;99.90;;;;;;5079478;28;19915;-81
2021/06/20 02:14:17;;;;;;;;;;;25.10;99.90;;;;;;5079239;28;19987;-81
2021/06/20 02:16:43;;;;;;;;;;;25.10;99.90;;;;;;5080220;28;19926;-81
2021/06/20 02:19:09;;;;;;;;;;;25.00;99.90;;;;;;5078126;28;19943;-81
2021/06/20 02:21:34;;;;;;;;;;;24.90;99.90;;;;;;5078211;28;19912;-82
2021/06/20 02:23:59;;;;;;;;;;;24.80;99.90;;;;;;5077993;28;19923;-81
2021/06/20 02:26:25;;;;;;;;;;;24.80;99.90;;;;;;5077555;28;19912;-81
2021/06/20 02:28:50;;;;;;;;;;;24.80;99.90;;;;;;5077173;28;19908;-81
2021/06/20 02:31:16;;;;;;;;;;;24.80;99.90;;;;;;5077207;28;19915;-81
2021/06/20 02:33:41;;;;;;;;;;;24.70;99.90;;;;;;5078440;28;20347;-81
2021/06/20 02:36:07;;;;;;;;;;;24.70;99.90;;;;;;5077985;28;19912;-80
2021/06/20 02:38:32;;;;;;;;;;;24.80;99.90;;;;;;5078772;28;19911;-81
2021/06/20 02:40:58;;;;;;;;;;;24.80;99.90;;;;;;5078493;28;20003;-82
2021/06/20 02:43:23;;;;;;;;;;;24.80;99.90;;;;;;5077634;28;19905;-81
2021/06/20 02:45:49;;;;;;;;;;;24.70;99.90;;;;;;5077943;28;20354;-81
2021/06/20 02:48:14;;;;;;;;;;;24.70;99.90;;;;;;5077720;28;19908;-81
2021/06/20 02:50:40;;;;;;;;;;;24.60;99.90;;;;;;5077890;28;19916;-81
2021/06/20 02:53:06;;;;;;;;;;;24.60;99.90;;;;;;5078086;28;19909;-81
2021/06/20 02:55:31;;;;;;;;;;;24.50;99.90;;;;;;5079630;28;20378;-81
2021/06/20 02:57:56;;;;;;;;;;;24.50;99.90;;;;;;5079667;28;19905;-81
2021/06/20 03:00:22;;;;;;;;;;;24.40;99.90;;;;;;5077729;28;20512;-81
2021/06/20 03:02:47;;;;;;;;;;;24.40;99.90;;;;;;5078133;28;19904;-80
2021/06/20 03:05:13;;;;;;;;;;;24.40;99.90;;;;;;5078453;28;19904;-82
2021/06/20 03:07:38;;;;;;;;;;;24.30;99.90;;;;;;5079367;28;19912;-81
2021/06/20 03:10:04;;;;;;;;;;;24.10;99.90;;;;;;5080143;28;19995;-80
2021/06/20 03:12:30;;;;;;;;;;;24.10;99.90;;;;;;5076643;28;19908;-80
2021/06/20 03:14:55;;;;;;;;;;;24.20;99.90;;;;;;5076462;28;19905;-80
2021/06/20 03:17:21;;;;;;;;;;;24.20;99.90;;;;;;5077746;28;19904;-80
2021/06/20 03:19:47;;;;;;;;;;;24.20;99.90;;;;;;5076317;28;19904;-80
2021/06/20 03:22:12;;;;;;;;;;;24.20;99.90;;;;;;5076668;28;20291;-81
2021/06/20 03:24:39;;;;;;;;;;;24.20;99.90;;;;;;5077895;28;19965;-79
2021/06/20 03:27:05;;;;;;;;;;;24.20;99.90;;;;;;5078197;28;19904;-82
2021/06/20 03:29:31;;;;;;;;;;;24.10;99.90;;;;;;5076748;28;19915;-81
2021/06/20 03:31:56;;;;;;;;;;;24.00;99.90;;;;;;5077355;28;19908;-80
2021/06/20 03:34:22;;;;;;;;;;;24.00;99.90;;;;;;5076590;28;19904;-80
2021/06/20 03:36:47;;;;;;;;;;;23.90;99.90;;;;;;5077250;28;19996;-80
2021/06/20 03:39:13;;;;;;;;;;;23.80;99.90;;;;;;5076340;28;20371;-81
2021/06/20 03:41:39;;;;;;;;;;;23.70;99.90;;;;;;5077032;28;19905;-80
2021/06/20 03:44:06;;;;;;;;;;;23.70;99.90;;;;;;5075684;28;20284;-82
2021/06/20 03:46:32;;;;;;;;;;;23.60;99.90;;;;;;5077083;28;20359;-82
2021/06/20 03:48:58;;;;;;;;;;;23.50;99.90;;;;;;5076191;28;19904;-83
2021/06/20 03:51:23;;;;;;;;;;;23.50;99.90;;;;;;5075885;28;19908;-80
2021/06/20 03:53:49;;;;;;;;;;;23.50;99.90;;;;;;5076614;28;19905;-80
2021/06/20 03:56:14;;;;;;;;;;;23.60;99.90;;;;;;5077307;28;20352;-80
2021/06/20 03:58:39;;;;;;;;;;;23.60;99.90;;;;;;5076219;28;19908;-81
2021/06/20 04:01:05;;;;;;;;;;;23.70;99.90;;;;;;5077494;28;19958;-82
2021/06/20 04:03:31;;;;;;;;;;;23.70;99.90;;;;;;5076476;28;19978;-80
2021/06/20 04:05:56;;;;;;;;;;;23.70;99.90;;;;;;5076775;28;19911;-81
2021/06/20 04:08:22;;;;;;;;;;;23.60;99.90;;;;;;5076750;28;19904;-83
2021/06/20 04:10:47;;;;;;;;;;;23.70;99.90;;;;;;5076753;28;19911;-81
2021/06/20 04:13:13;;;;;;;;;;;23.60;99.90;;;;;;5076656;28;19915;-80
2021/06/20 04:15:39;;;;;;;;;;;23.70;99.90;;;;;;5077129;28;19912;-81
2021/06/20 04:18:04;;;;;;;;;;;23.70;99.90;;;;;;5077680;28;19959;-81
2021/06/20 04:20:30;;;;;;;;;;;23.80;99.90;;;;;;5078406;28;20051;-83
2021/06/20 04:22:56;;;;;;;;;;;23.80;99.90;;;;;;5079260;28;19905;-83
2021/06/20 04:25:21;;;;;;;;;;;23.80;99.90;;;;;;5078854;28;19934;-82
2021/06/20 04:27:48;;;;;;;;;;;23.80;99.90;;;;;;5078590;28;19911;-83
2021/06/20 04:30:18;;;;;;;;;;;23.80;99.90;;;;;;5078280;28;20352;-81
2021/06/20 04:32:44;;;;;;;;;;;23.90;99.90;;;;;;5077873;28;20402;-85
2021/06/20 04:35:11;;;;;;;;;;;24.20;99.90;;;;;;5078516;28;19904;-82
2021/06/20 04:37:37;;;;;;;;;;;24.40;99.90;;;;;;5078787;28;19910;-85
2021/06/20 04:40:04;;;;;;;;;;;24.60;99.90;;;;;;5078121;28;19991;-82
2021/06/20 04:42:34;;;;;;;;;;;25.60;99.90;;;;;;5077603;28;20041;-81
2021/06/20 04:45:00;;;;;;;;;;;27.10;99.90;;;;;;5076370;28;19913;-82
2021/06/20 04:47:27;;;;;;;5.50;1.50;;;27.20;99.90;;;;;;5075954;28;19904;-83
2021/06/20 04:49:53;;;;;;;;;;;26.80;99.90;;;;;;5077370;28;19904;-81
2021/06/20 04:52:18;;;;;;;;;;;27.20;99.90;;;;;;5076713;28;19999;-80
2021/06/20 04:54:50;;;;;;;;;;;27.90;99.90;;;;;;5075834;28;20044;-81
2021/06/20 04:57:20;;;;;;;;;;;27.60;99.90;;;;;;5077039;28;19908;-83
2021/06/20 04:59:46;;;;;;;;;;;27.10;99.90;;;;;;5079436;28;20071;-81
2021/06/20 05:02:12;;;;;;;;;;;26.80;99.90;;;;;;5078552;28;20500;-80
2021/06/20 05:04:38;;;;;;;;;;;26.10;99.90;;;;;;5082022;28;20031;-81
2021/06/20 05:07:04;;;;;;;;;;;25.50;99.90;;;;;;5083246;28;19911;-81
2021/06/20 05:09:29;;;;;;;;;;;25.20;99.90;;;;;;5082238;28;19982;-81
2021/06/20 05:11:55;;;;;;;;;;;24.90;99.90;;;;;;5080121;28;19947;-82
2021/06/20 05:14:22;;;;;;;;;;;24.80;99.90;;;;;;5079740;28;19915;-81
2021/06/20 05:16:47;;;;;;;;;;;24.90;99.90;;;;;;5079464;28;20314;-81
2021/06/20 05:19:12;;;;;;;;;;;24.90;99.90;;;;;;5079253;28;19904;-81
2021/06/20 05:21:38;;;;;;;;;;;25.00;99.90;;;;;;5079928;28;20176;-81
2021/06/20 05:24:04;;;;;;;;;;;25.00;99.90;;;;;;5080699;28;19915;-83
2021/06/20 05:26:29;;;;;;;;;;;24.90;99.90;;;;;;5082345;28;19904;-82
2021/06/20 05:28:55;;;;;;;;;;;24.90;99.90;;;;;;5079800;28;19950;-82
2021/06/20 05:31:20;;;;;;;;;;;25.00;99.90;;;;;;5079411;28;19908;-80
2021/06/20 05:33:46;;;;;;;;;;;24.90;99.90;;;;;;5079354;28;19927;-82
2021/06/20 05:36:11;;;;;;;;;;;24.70;99.90;;;;;;5077382;28;20007;-79
2021/06/20 05:38:37;;;;;;;;;;;24.70;99.90;;;;;;5077690;28;20367;-81
2021/06/20 05:41:02;;;;;;;;;;;24.80;99.90;;;;;;5078879;28;19931;-82
2021/06/20 05:43:28;;;;;;;;;;;24.90;99.90;;;;;;5078177;28;19904;-81
2021/06/20 05:45:54;;;;;;;;;;;25.30;99.90;;;;;;5077943;28;19911;-82
2021/06/20 05:48:19;;;;;;;;;;;25.50;99.90;;;;;;5079314;28;19911;-81
2021/06/20 05:50:44;;;;;;;;;;;26.10;99.90;;;;;;5078211;28;20283;-81
2021/06/20 05:53:10;;;;;;;;;;;26.20;99.90;;;;;;5079026;28;19948;-80
2021/06/20 05:55:35;;;;;;;;;;;26.30;99.90;;;;;;5079822;28;20379;-81
2021/06/20 05:58:01;;;;;;;;;;;26.40;99.90;;;;;;5078365;28;19904;-80
2021/06/20 06:00:27;;;;;;;;;;;26.50;99.90;;;;;;5078929;28;19911;-82
2021/06/20 06:02:52;;;;;;;;;;;26.40;99.90;;;;;;5077427;28;19905;-81
2021/06/20 06:05:18;;;;;;;;;;;26.50;99.90;;;;;;5075820;28;19999;-82
2021/06/20 06:07:44;;;;;;;;;;;26.50;99.90;;;;;;5077111;28;19908;-81
2021/06/20 06:10:10;;;;;;;;;;;26.60;99.90;;;;;;5077546;28;19958;-81
2021/06/20 06:12:36;;;;;;;;;;;26.40;99.90;;;;;;5077452;28;19908;-81
2021/06/20 06:15:02;;;;;;;;;;;26.40;99.90;;;;;;5077201;28;19904;-81
2021/06/20 06:17:27;;;;;;;;;;;26.40;99.90;;;;;;5075923;28;19905;-81
2021/06/20 06:19:53;;;;;;;;;;;26.50;99.90;;;;;;5079502;28;19911;-81
2021/06/20 06:22:19;;;;;;;;;;;26.60;99.90;;;;;;5077534;28;19918;-81
2021/06/20 06:24:45;;;;;;;;;;;26.40;99.90;;;;;;5077661;28;20252;-81
2021/06/20 06:27:11;;;;;;;;;;;26.70;99.90;;;;;;5077045;28;19943;-81
2021/06/20 06:29:36;;;;;;;;;;;26.80;99.90;;;;;;5077256;28;20279;-81
2021/06/20 06:32:02;;;;;;;;;;;26.90;99.90;;;;;;5077594;28;19908;-81
2021/06/20 06:34:27;;;;;;;;;;;27.00;99.90;;;;;;5079316;28;19905;-81
2021/06/20 06:36:53;;;;;;;;;;;27.10;99.90;;;;;;5078860;28;20343;-81
2021/06/20 06:39:19;;;;;;;;;;;26.80;99.90;;;;;;5079606;28;19904;-80
2021/06/20 06:41:44;;;;;;;;;;;26.90;99.90;;;;;;5078257;28;19904;-81
2021/06/20 06:44:10;;;;;;;2.13;1.40;;;26.60;99.90;;;;;;5081702;28;20080;-82
2021/06/20 06:46:36;;;;;;;2.40;1.67;;;26.60;99.90;;;;;;5084923;28;20028;-81
2021/06/20 06:49:01;;;;;;;2.83;1.43;;;27.40;99.90;;;;;;5082135;28;20479;-80
2021/06/20 06:51:27;;;;;;;3.00;1.60;;;27.30;99.90;;;;;;5082692;28;20028;-81
2021/06/20 06:53:52;;;;;;;;;;;27.20;99.90;;;;;;5082002;28;20071;-81
2021/06/20 06:56:18;;;;;;;;;;;27.20;99.90;;;;;;5082595;28;20024;-81
2021/06/20 06:58:43;;;;;;;;;;;27.40;99.90;;;;;;5083760;28;20028;-81
2021/06/20 07:01:09;;;;;;;;;;;27.80;99.90;;;;;;5084645;28;20032;-79
2021/06/20 07:03:34;;;;;;;;;;;27.80;99.90;;;;;;5083114;28;20061;-80
2021/06/20 07:06:00;;;;;;;;;;;27.50;99.90;;;;;;5083782;28;20209;-81
2021/06/20 07:08:25;;;;;;;;;;;27.50;99.90;;;;;;5081792;28;20025;-81
2021/06/20 07:10:51;;;;;;;;;;;28.10;99.90;;;;;;5082187;28;20097;-82
2021/06/20 07:13:16;;;;;;;;;;;27.60;99.90;;;;;;5082513;28;20047;-81
2021/06/20 07:15:42;;;;;;;;;;;27.30;99.90;;;;;;5083047;28;20020;-81
2021/06/20 07:18:07;;;;;;;;;;;27.00;99.90;;;;;;5082241;28;20017;-80
2021/06/20 07:20:33;;;;;;;3.70;1.63;;;27.20;99.90;;;;;;5080330;28;20046;-80
2021/06/20 07:22:58;;;;;;;1.57;0.93;;;27.40;99.90;;;;;;5082257;28;20418;-80
2021/06/20 07:25:24;;;;;;;2.07;1.50;;;27.10;99.90;;;;;;5081911;28;20020;-80
2021/06/20 07:27:51;;;;;;;3.47;1.50;;;27.30;99.90;;;;;;5083725;28;20078;-80
2021/06/20 07:30:20;;;;;;;2.90;1.50;;;27.60;99.90;;;;;;5081989;28;20032;-81
2021/06/20 07:32:46;;;;;;;;;;;27.70;99.90;;;;;;5083514;28;20499;-80
2021/06/20 07:35:12;;;;;;;;;;;27.80;99.90;;;;;;5081987;28;20105;-80
2021/06/20 07:37:38;;;;;;;;;;;27.80;99.90;;;;;;5082738;28;20021;-81
2021/06/20 07:40:07;;;;;;;3.20;1.50;;;28.10;99.90;;;;;;5082889;28;20024;-80
2021/06/20 07:42:32;;;;;;;;;;;28.10;99.90;;;;;;5085779;28;20036;-81
2021/06/20 07:44:58;;;;;;;;;;;27.60;99.90;;;;;;5082621;28;20406;-80
2021/06/20 07:47:23;;;;;;;;;;;27.60;99.90;;;;;;5083524;28;20055;-82
2021/06/20 07:49:49;;;;;;;;;;;27.60;99.90;;;;;;5082413;28;20512;-82
2021/06/20 07:52:14;;;;;;;;;;;27.90;99.90;;;;;;5082715;28;20037;-81
2021/06/20 07:54:42;;;;;;;;;;;27.90;99.90;;;;;;5080609;28;20043;-81
2021/06/20 07:57:08;;;;;;;;;;;27.70;99.90;;;;;;5082287;28;20124;-81
2021/06/20 07:59:34;;;;;;;;;;;27.70;99.90;;;;;;5083871;28;20037;-82
2021/06/20 08:01:59;;;;;;;;;;;27.60;99.90;;;;;;5082033;28;19947;-81
2021/06/20 08:04:25;;;;;;;;;;;27.40;99.90;;;;;;5083315;28;20116;-80
2021/06/20 08:06:50;;;;;;;;;;;27.00;99.90;;;;;;5082574;28;20415;-80
2021/06/20 08:09:18;;;;;;;;;;;26.90;99.90;;;;;;5081920;28;20045;-82
2021/06/20 08:11:43;;;;;;;;;;;26.90;99.90;;;;;;5082272;28;20035;-82
2021/06/20 08:14:09;;;;;;;;;;;26.90;99.90;;;;;;5081957;28;19905;-81
2021/06/20 08:16:34;;;;;;;;;;;26.80;99.90;;;;;;5082701;28;19908;-82
2021/06/20 08:19:00;;;;;;;;;;;26.80;99.90;;;;;;5082006;28;24059;-82
2021/06/20 08:21:25;;;;;;;;;;;26.90;99.90;;;;;;5082043;28;24060;-81
2021/06/20 08:23:51;;;;;;;;;;;27.40;99.90;;;;;;5082737;28;20291;-80
2021/06/20 08:26:17;;;;;;;;;;;27.60;99.90;;;;;;5081022;28;20038;-81
2021/06/20 08:28:43;;;;;;;;;;;27.40;99.90;;;;;;5081245;28;20037;-81
2021/06/20 08:31:08;;;;;;;;;;;27.20;99.90;;;;;;5081981;28;19911;-82
2021/06/20 08:33:34;;;;;;;;;;;27.20;99.90;;;;;;5081365;28;19908;-81
2021/06/20 08:35:59;;;;;;;;;;;27.10;99.90;;;;;;5082824;28;20024;-79
2021/06/20 08:38:25;;;;;;;;;;;26.90;99.90;;;;;;5080654;28;19977;-82
2021/06/20 08:40:53;;;;;;;;;;;26.60;99.90;;;;;;5082366;28;20291;-81
2021/06/20 08:43:19;;;;;;;;;;;26.50;99.90;;;;;;5081433;28;19911;-81
2021/06/20 08:45:49;;;;;;;;;;;26.40;99.90;;;;;;5082098;28;19918;-80
2021/06/20 08:48:14;;;;;;;;;;;26.20;99.90;;;;;;5081240;28;20413;-80
2021/06/20 08:50:41;;;;;;;;;;;26.00;99.90;;;;;;5081986;28;19904;-80
2021/06/20 08:53:06;;;;;;;;;;;26.20;99.90;;;;;;5080767;28;20041;-81
2021/06/20 08:55:32;;;;;;;;;;;26.20;99.90;;;;;;5080921;28;20041;-81
2021/06/20 08:58:02;;;;;;;;;;;26.30;99.90;;;;;;5082033;28;20031;-81
2021/06/20 09:00:28;;;;;;;;;;;26.20;99.90;;;;;;5080755;28;20024;-80
2021/06/20 09:02:57;;;;;;;;;;;26.10;99.90;;;;;;5081374;28;20085;-81
2021/06/20 09:05:23;;;;;;;;;;;25.80;99.90;;;;;;5082043;28;20046;-81
2021/06/20 09:07:48;;;;;;;;;;;25.70;99.90;;;;;;5080895;28;20067;-81
2021/06/20 09:10:18;;;;;;;;;;;25.70;99.90;;;;;;5080134;28;20367;-82
2021/06/20 09:12:47;;;;;;;;;;;25.90;99.90;;;;;;5077611;28;25052;-83
2021/06/20 09:15:16;;;;;;;;;;;25.90;99.90;;;;;;5078060;28;20005;-82
2021/06/20 09:17:53;;;;;;;;;;;25.90;99.90;;;;;;5077934;28;19962;-83
2021/06/20 09:20:28;;;;;;;;;;;25.90;99.90;;;;;;5077438;28;24100;-83
2021/06/20 09:22:55;;;;;;;;;;;26.00;99.90;;;;;;5079418;28;24066;-82
2021/06/20 09:25:25;;;;;;;1.42;1.30;;;26.10;99.90;;;;;;5077398;28;20124;-80
2021/06/20 09:27:57;;;;;;;3.60;1.25;;;26.20;99.90;;;;;;5078632;28;20032;-82
2021/06/20 09:30:24;;;;;;;3.67;1.70;;;26.20;99.90;;;;;;5078334;28;20330;-82
2021/06/20 09:33:01;;;;;;;2.88;1.52;;;26.50;99.90;;;;;;5078873;28;20092;-83
2021/06/20 09:35:41;;;;;;;3.35;1.95;;;26.70;99.90;;;;;;5079824;28;20020;-83
2021/06/20 09:38:08;;;;;;;;;;;26.80;99.90;;;;;;5077797;28;19911;-83
2021/06/20 09:40:34;;;;;;;;;;;26.40;99.90;;;;;;5076794;28;20486;-82
2021/06/20 09:42:59;;;;;;;;;;;26.30;99.90;;;;;;5078303;28;19951;-83
2021/06/20 09:45:26;;;;;;;;;;;26.20;99.90;;;;;;5077357;28;20008;-81
2021/06/20 09:47:51;;;;;;;;;;;26.40;99.90;;;;;;5077143;28;25124;-82
2021/06/20 09:50:31;;;;;;;;;;;26.80;99.90;;;;;;5077834;28;19908;-84
2021/06/20 09:52:58;;;;;;;;;;;26.80;99.90;;;;;;5077528;28;24072;-82
2021/06/20 09:55:24;;;;;;;;;;;26.30;99.90;;;;;;5077840;28;20028;-83
2021/06/20 09:57:49;;;;;;;;;;;26.10;99.90;;;;;;5076471;28;24069;-82
2021/06/20 10:00:15;;;;;;;;;;;25.90;99.90;;;;;;5076714;28;20370;-83
2021/06/20 10:02:41;;;;;;;;;;;25.60;99.90;;;;;;5077522;28;24073;-83
2021/06/20 10:05:10;;;;;;;;;;;25.30;99.90;;;;;;5077671;28;19900;-83
2021/06/20 10:07:36;;;;;;;;;;;25.30;99.90;;;;;;5075994;28;19905;-81
2021/06/20 10:10:03;;;;;;;;;;;25.30;99.90;;;;;;5075940;28;19936;-83
2021/06/20 10:12:29;;;;;;;;;;;25.20;99.90;;;;;;5077163;28;19909;-83
2021/06/20 10:14:56;;;;;;;;;;;25.10;99.90;;;;;;5077017;28;19912;-83
2021/06/20 10:17:30;;;;;;;;;;;25.10;99.90;;;;;;5077845;28;19915;-83
2021/06/20 10:19:57;;;;;;;;;;;25.10;99.90;;;;;;5077415;28;19908;-81
2021/06/20 10:22:23;;;;;;;;;;;25.10;99.90;;;;;;5078601;28;20093;-82
2021/06/20 10:24:53;;;;;;;;;;;25.30;99.90;;;;;;5077390;28;20015;-82
2021/06/20 10:27:41;;;;;;;;;;;25.40;99.90;;;;;;5077568;28;24072;-81
2021/06/20 10:30:28;;;;;;;;;;;25.70;99.90;;;;;;5077426;28;25154;-82
2021/06/20 10:33:01;;;;;;;;;;;26.50;99.90;;;;;;5076680;28;19916;-84
2021/06/20 10:35:27;;;;;;;;;;;27.10;99.90;;;;;;5078784;28;20347;-82
2021/06/20 10:37:53;;;;;;;;;;;27.40;99.90;;;;;;5078128;28;19905;-81
2021/06/20 10:40:27;;;;;;;;;;;27.70;99.90;;;;;;5077975;28;20013;-81
2021/06/20 10:42:54;;;;;;;;;;;28.80;99.90;;;;;;5077081;28;19919;-82
2021/06/20 10:45:27;;;;;;;;;;;29.20;99.90;;;;;;5077558;28;20091;-84
2021/06/20 10:47:52;;;;;;;;;;;28.70;99.90;;;;;;5077511;28;20055;-81
2021/06/20 10:50:18;;;;;;;;;;;28.40;99.90;;;;;;5079185;28;20507;-83
2021/06/20 10:52:57;;;;;;;;;;;28.30;99.90;;;;;;5078908;28;20032;-84
2021/06/20 10:55:22;;;;;;;;;;;28.10;99.90;;;;;;5078095;28;20069;-84
2021/06/20 10:57:50;;;;;;;;;;;28.30;99.90;;;;;;5078246;28;20430;-84
2021/06/20 11:00:29;;;;;;;;;;;28.10;99.90;;;;;;5078517;28;20573;-84
2021/06/20 11:03:05;;;;;;;;;;;27.70;99.90;;;;;;5078815;28;20036;-81
2021/06/20 11:05:41;;;;;;;;;;;27.70;99.90;;;;;;5077903;28;20496;-80
2021/06/20 11:08:07;;;;;;;;;;;28.00;99.90;;;;;;5078529;28;20028;-84
2021/06/20 11:10:32;;;;;;;;;;;28.10;99.90;;;;;;5078690;28;20056;-84
2021/06/20 11:12:57;;;;;;;;;;;28.50;99.90;;;;;;5079208;28;20028;-83
2021/06/20 11:15:24;;;;;;;;;;;29.20;99.90;;;;;;5079307;28;20017;-81
2021/06/20 11:17:49;;;;;;;;;;;29.50;99.90;;;;;;5078162;28;19917;-83
2021/06/20 11:20:15;;;;;;;;;;;29.60;99.90;;;;;;5078605;28;20037;-84
2021/06/20 11:22:40;;;;;;;;;;;29.20;99.90;;;;;;5077823;28;19909;-83
2021/06/20 11:25:06;;;;;;;;;;;29.20;99.90;;;;;;5077765;28;19927;-84
2021/06/20 11:27:32;;;;;;;;;;;29.20;99.90;;;;;;5078035;28;20651;-82
2021/06/20 11:29:59;;;;;;;;;;;29.10;99.90;;;;;;5081039;28;20041;-81
2021/06/20 11:32:30;;;;;;;;;;;29.00;99.90;;;;;;5082570;28;20031;-84
2021/06/20 11:34:56;;;;;;;;;;;29.20;99.90;;;;;;5081816;28;19905;-84
2021/06/20 11:37:24;;;;;;;;;;;29.80;99.90;;;;;;5082117;28;19908;-83
2021/06/20 11:39:53;;;;;;;;;;;30.10;99.90;;;;;;5079871;28;19926;-82
2021/06/20 11:42:22;;;;;;;;;;;30.20;99.90;;;;;;5078846;28;20025;-80
2021/06/20 11:45:18;;;;;;;;;;;29.80;99.90;;;;;;5081139;28;20061;-80
2021/06/20 11:47:45;;;;;;;;;;;30.10;99.90;;;;;;5073231;28;19928;-81
2021/06/20 11:50:26;;;;;;;;;;;29.80;99.90;;;;;;5082166;28;20049;-81
2021/06/20 11:53:06;;;;;;;;;;;29.90;99.90;;;;;;5079150;28;20053;-83
2021/06/20 11:55:34;;;;;;;;;;;30.30;99.90;;;;;;5075379;28;20517;-81
2021/06/20 11:58:04;;;;;;;;;;;30.90;99.90;;;;;;5077411;28;19976;-83
2021/06/20 12:00:29;;;;;;;;;;;30.50;98.50;;;;;;5082019;28;19950;-81
2021/06/20 12:02:58;;;;;;;;;;;30.40;99.90;;;;;;5081707;28;19904;-82
2021/06/20 12:05:23;;;;;;;;;;;30.60;98.90;;;;;;5082653;28;20045;-84
2021/06/20 12:07:50;;;;;;;;;;;30.80;97.80;;;;;;5081916;28;20046;-84
2021/06/20 12:10:18;;;;;;;;;;;30.70;98.90;;;;;;5079859;28;19912;-84
2021/06/20 12:12:44;;;;;;;;;;;30.70;98.30;;;;;;5079952;28;20041;-82
2021/06/20 12:15:10;;;;;;;;;;;30.80;98.20;;;;;;5082656;28;19904;-83
2021/06/20 12:17:37;;;;;;;;;;;30.90;97.50;;;;;;5078684;28;20047;-82
2021/06/20 12:20:03;;;;;;;;;;;30.80;98.80;;;;;;5076553;28;20063;-82
2021/06/20 12:22:28;;;;;;;;;;;30.50;99.10;;;;;;5075250;28;19905;-83
2021/06/20 12:24:54;;;;;;;;;;;30.30;98.40;;;;;;5076180;28;20003;-83
2021/06/20 12:27:33;;;;;;;;;;;30.30;97.90;;;;;;5080757;28;19908;-83
2021/06/20 12:30:00;;;;;;;;;;;30.60;99.80;;;;;;5079676;28;20040;-84
2021/06/20 12:32:30;;;;;;;;;;;31.20;99.90;;;;;;5080692;28;20028;-82
2021/06/20 12:34:56;;;;;;;;;;;31.10;97.20;;;;;;5081345;28;19912;-83
2021/06/20 12:37:22;;;;;;;;;;;30.30;98.10;;;;;;5080273;28;20038;-81
2021/06/20 12:39:54;;;;;;;;;;;29.90;98.80;;;;;;5081106;28;20030;-81
2021/06/20 12:42:20;;;;;;;;;;;29.80;99.90;;;;;;5078306;28;20029;-82
2021/06/20 12:44:46;;;;;;;;;;;30.30;99.20;;;;;;5080414;28;19912;-83
2021/06/20 12:47:12;;;;;;;;;;;30.50;98.90;;;;;;5081745;28;20068;-84
2021/06/20 12:49:38;;;;;;;;;;;30.70;99.80;;;;;;5083353;28;20275;-81
2021/06/20 12:52:04;;;;;;;;;;;30.80;99.60;;;;;;5084101;28;20087;-82
2021/06/20 12:54:38;;;;;;;;;;;30.70;99.20;;;;;;5084521;28;20061;-82
2021/06/20 12:57:04;;;;;;;;;;;30.80;99.90;;;;;;5082325;28;20027;-83
2021/06/20 12:59:36;;;;;;;;;;;30.90;98.10;;;;;;5082689;28;20109;-83
2021/06/20 13:02:01;;;;;;;;;;;30.20;98.40;;;;;;5081989;28;20007;-83
2021/06/20 13:04:26;;;;;;;;;;;30.70;98.20;;;;;;5084958;28;19911;-85
2021/06/20 13:06:53;;;;;;;;;;;30.60;98.20;;;;;;5084444;28;19905;-80
2021/06/20 13:09:18;;;;;;;;;;;30.80;98.10;;;;;;5085275;28;19912;-80
2021/06/20 13:11:44;;;;;;;;;;;30.50;99.20;;;;;;5085435;28;20073;-84
2021/06/20 13:14:21;;;;;;;;;;;31.00;99.90;;;;;;5083148;28;20030;-82
2021/06/20 13:16:47;;;;;;;;;;;31.10;98.70;;;;;;5085059;28;20033;-82
2021/06/20 13:19:14;;;;;;;;;;;31.40;98.50;;;;;;5083797;28;20041;-83
2021/06/20 13:21:39;;;;;;;;;;;31.40;97.30;;;;;;5085840;28;20036;-82
2021/06/20 13:24:09;;;;;;;;;;;31.50;98.60;;;;;;5083695;28;19958;-83
2021/06/20 13:26:35;;;;;;;;;;;31.10;97.50;;;;;;5083575;28;19904;-83
2021/06/20 13:29:00;;;;;;;;;;;30.30;98.60;;;;;;5077468;28;20428;-83
2021/06/20 13:31:26;;;;;;;;;;;29.90;98.20;;;;;;5073641;28;20094;-82
2021/06/20 13:33:55;;;;;;;;;;;29.80;98.70;;;;;;5074002;28;20499;-82
2021/06/20 13:36:20;;;;;;;;;;;30.10;99.30;;;;;;5072523;28;20034;-83
2021/06/20 13:38:46;;;;;;;;;;;30.40;99.30;;;;;;5072729;28;19911;-83
2021/06/20 13:41:11;;;;;;;;;;;30.30;99.00;;;;;;5073553;28;19954;-81
2021/06/20 13:43:37;;;;;;;;;;;30.50;99.90;;;;;;5072218;28;20039;-82
2021/06/20 13:46:02;;;;;;;;;;;30.40;99.40;;;;;;5073279;28;20244;-82
2021/06/20 13:48:28;;;;;;;;;;;30.50;99.90;;;;;;5073192;28;20443;-82
2021/06/20 13:50:53;;;;;;;;;;;30.30;98.40;;;;;;5073433;28;20348;-80
2021/06/20 13:53:20;;;;;;;;;;;30.20;99.80;;;;;;5072558;28;20057;-83
2021/06/20 13:55:45;;;;;;;;;;;30.00;98.90;;;;;;5075419;28;19911;-80
2021/06/20 13:58:13;;;;;;;;;;;29.80;99.90;;;;;;5072904;28;19913;-83
2021/06/20 14:00:38;;;;;;;;;;;30.00;99.20;;;;;;5072466;28;20024;-81
2021/06/20 14:03:04;;;;;;;;;;;30.00;99.90;;;;;;5073591;28;20067;-83
2021/06/20 14:05:29;;;;;;;;;;;29.80;99.30;;;;;;5075048;28;20499;-79
2021/06/20 14:07:55;;;;;;;;;;;30.20;99.10;;;;;;5072988;28;20037;-83